Time;durP1;ratioP1;P1;durP2;ratioP2;P2;SDS_P1;SDS_P2;PMS_P1;PMS_P2;Temp;Humidity;BMP_temperature;BMP_pressure;BME280_temperature;BME280_humidity;BME280_pressure;Samples;Min_cycle;Max_cycle;Signal;HPM_P1;HPM_P2
2023/04/13 00:01:16;;;;;;;17.92;13.95;;;;;;;23.11;35.33;98641.03;4360841;32;33830;-61
2023/04/13 00:03:44;;;;;;;16.62;13.30;;;;;;;23.11;35.33;98637.50;4360948;32;33711;-61
2023/04/13 00:06:12;;;;;;;20.55;12.25;;;;;;;23.11;35.38;98640.22;4344202;33;33441;-61
2023/04/13 00:08:41;;;;;;;18.85;12.88;;;;;;;23.12;35.41;98637.25;4345725;33;33221;-61
2023/04/13 00:11:10;;;;;;;17.83;12.95;;;;;;;23.13;35.45;98627.22;4345971;33;33508;-60
2023/04/13 00:13:41;;;;;;;16.30;12.98;;;;;;;23.12;35.46;98629.09;4344301;33;34062;-60
2023/04/13 00:16:09;;;;;;;17.30;12.80;;;;;;;23.12;35.50;98623.63;4344958;33;33686;-60
2023/04/13 00:18:37;;;;;;;17.48;12.02;;;;;;;23.11;35.50;98622.00;4356880;32;33142;-60
2023/04/13 00:21:05;;;;;;;16.00;12.65;;;;;;;23.11;35.53;98618.47;4332003;33;33909;-60
2023/04/13 00:23:36;;;;;;;16.08;12.57;;;;;;;23.11;35.54;98621.19;4345899;33;34779;-60
2023/04/13 00:26:04;;;;;;;20.83;12.88;;;;;;;23.10;35.56;98624.97;4345671;33;34525;-59
2023/04/13 00:28:32;;;;;;;18.08;13.10;;;;;;;23.11;35.55;98624.72;4356439;32;33399;-60
2023/04/13 00:31:00;;;;;;;18.10;12.73;;;;;;;23.10;35.53;98623.09;4345843;33;34595;-60
2023/04/13 00:33:27;;;;;;;18.08;12.52;;;;;;;23.11;35.56;98623.91;4345393;33;33667;-60
2023/04/13 00:35:57;;;;;;;16.55;12.18;;;;;;;23.12;35.58;98618.19;4356084;32;33560;-61
2023/04/13 00:38:28;;;;;;;17.77;12.85;;;;;;;23.12;35.57;98617.38;4344527;33;32567;-60
2023/04/13 00:40:56;;;;;;;15.80;12.40;;;;;;;23.10;35.56;98616.81;4345631;33;34015;-60
2023/04/13 00:43:24;;;;;;;16.12;12.32;;;;;;;23.11;35.57;98613.03;4343993;33;34768;-60
2023/04/13 00:45:52;;;;;;;17.77;12.57;;;;;;;23.10;35.60;98612.19;4344452;33;32868;-60
2023/04/13 00:48:19;;;;;;;19.23;13.10;;;;;;;23.09;35.60;98621.44;4344364;33;33858;-60
2023/04/13 00:50:47;;;;;;;15.98;12.73;;;;;;;23.09;35.60;98615.19;4356257;32;33930;-60
2023/04/13 00:53:15;;;;;;;16.23;13.10;;;;;;;23.08;35.61;98619.81;4344415;33;33459;-60
2023/04/13 00:55:43;;;;;;;16.92;12.23;;;;;;;23.08;35.60;98625.25;4344247;33;34736;-60
2023/04/13 00:58:12;;;;;;;15.10;11.20;;;;;;;23.09;35.60;98631.50;4356036;32;33609;-60
2023/04/13 01:00:41;;;;;;;18.67;12.53;;;;;;;23.08;35.61;98622.53;4332105;33;34373;-60
2023/04/13 01:03:10;;;;;;;16.05;11.95;;;;;;;23.07;35.62;98623.56;4345545;33;33697;-60
2023/04/13 01:05:55;;;;;;;14.70;11.95;;;;;;;23.09;35.66;98612.47;4344892;33;34704;-60
2023/04/13 01:08:35;;;;;;;16.23;11.63;;;;;;;23.09;35.67;98612.47;4356205;32;34814;-60
2023/04/13 01:11:06;;;;;;;16.27;12.05;;;;;;;23.07;35.67;98615.41;4343419;33;33830;-60
2023/04/13 01:13:41;;;;;;;20.45;12.50;;;;;;;23.06;35.67;98612.97;4343378;33;33865;-60
2023/04/13 01:16:17;;;;;;;15.60;11.93;;;;;;;23.06;35.68;98608.34;4342930;33;33507;-60
2023/04/13 01:18:49;;;;;;;14.63;11.63;;;;;;;23.06;35.67;98616.50;4350266;32;33868;-60
2023/04/13 01:21:19;;;;;;;15.60;11.07;;;;;;;23.04;35.69;98607.78;4345786;33;33848;-60
2023/04/13 01:24:19;;;;;;;17.35;11.32;;;;;;;23.05;35.71;98608.59;4347067;33;33835;-60
2023/04/13 01:27:05;;;;;;;19.37;11.67;;;;;;;23.07;35.63;98596.38;4357801;32;33443;-60
2023/04/13 01:29:33;;;;;;;13.75;10.55;;;;;;;23.06;35.65;98605.63;4347113;33;34086;-60
2023/04/13 01:32:01;;;;;;;14.15;11.45;;;;;;;23.04;35.67;98604.25;4345706;33;33880;-60
2023/04/13 01:34:28;;;;;;;14.75;11.50;;;;;;;23.03;35.67;98603.38;4357840;32;35184;-60
2023/04/13 01:36:56;;;;;;;14.05;10.32;;;;;;;23.03;35.71;98600.66;4347077;33;33959;-60
2023/04/13 01:39:30;;;;;;;15.95;11.82;;;;;;;23.03;35.68;98605.28;4346998;33;33433;-60
2023/04/13 01:41:59;;;;;;;14.85;11.15;;;;;;;23.03;35.72;98602.56;4333979;33;33924;-60
2023/04/13 01:44:27;;;;;;;13.27;10.70;;;;;;;23.02;35.72;98607.19;4321829;33;33984;-60
2023/04/13 01:46:57;;;;;;;13.95;11.32;;;;;;;23.02;35.74;98609.09;4345560;33;33787;-60
2023/04/13 01:49:30;;;;;;;15.68;12.18;;;;;;;23.01;35.73;98613.72;4345615;33;34412;-59
2023/04/13 01:52:00;;;;;;;15.48;11.57;;;;;;;23.03;35.73;98608.00;4333681;33;33832;-60
2023/04/13 01:54:30;;;;;;;14.30;11.20;;;;;;;23.01;35.73;98602.00;4338706;33;33701;-60
2023/04/13 01:56:58;;;;;;;13.88;10.23;;;;;;;23.01;35.76;98608.28;4345555;33;33716;-60
2023/04/13 01:59:27;;;;;;;13.20;10.38;;;;;;;23.01;35.75;98611.00;4345658;33;33413;-60
2023/04/13 02:01:56;;;;;;;16.00;11.68;;;;;;;23.01;35.79;98605.56;4357684;32;34308;-60
2023/04/13 02:04:24;;;;;;;17.23;11.23;;;;;;;23.02;35.85;98614.53;4345278;33;34689;-60
2023/04/13 02:06:52;;;;;;;14.93;10.95;;;;;;;23.03;35.88;98618.88;4345874;33;34563;-60
2023/04/13 02:09:21;;;;;;;16.10;11.30;;;;;;;23.00;35.98;98609.34;4347110;33;33205;-60
2023/04/13 02:11:51;;;;;;;;;;;;;;;23.02;36.01;98607.19;4346469;33;34011;-60
2023/04/13 02:14:19;;;;;;;13.75;10.50;;;;;;;23.10;35.83;98606.75;4346624;33;34035;-60
2023/04/13 02:16:47;;;;;;;13.88;10.40;;;;;;;23.03;36.00;98611.56;4357204;32;34519;-60
2023/04/13 02:19:15;;;;;;;14.80;10.05;;;;;;;23.01;36.05;98605.56;4346412;33;33546;-61
2023/04/13 02:21:43;;;;;;;13.32;11.18;;;;;;;23.00;36.09;98613.97;4346551;33;34689;-60
2023/04/13 02:24:11;;;;;;;14.02;11.02;;;;;;;22.99;36.11;98618.59;4346723;33;34432;-60
2023/04/13 02:26:39;;;;;;;15.35;10.88;;;;;;;22.98;36.10;98614.22;4344971;33;33865;-60
2023/04/13 02:29:06;;;;;;;14.20;11.02;;;;;;;22.99;36.11;98610.44;4346585;33;34025;-61
2023/04/13 02:31:34;;;;;;;15.18;11.30;;;;;;;22.99;36.14;98610.44;4346417;33;34831;-60
2023/04/13 02:34:02;;;;;;;14.48;10.68;;;;;;;22.99;36.15;98605.00;4344554;33;33910;-60
2023/04/13 02:36:30;;;;;;;14.13;10.90;;;;;;;23.00;36.16;98605.81;4346699;33;34829;-60
2023/04/13 02:38:59;;;;;;;14.80;10.68;;;;;;;23.01;36.15;98611.00;4346914;33;34401;-60
2023/04/13 02:41:27;;;;;;;14.10;10.98;;;;;;;23.01;36.18;98608.28;4346147;33;33644;-60
2023/04/13 02:43:55;;;;;;;12.02;9.70;;;;;;;23.00;36.17;98606.63;4345156;33;34018;-60
2023/04/13 02:46:23;;;;;;;13.50;10.95;;;;;;;23.01;36.15;98604.72;4346637;33;33602;-60
2023/04/13 02:48:51;;;;;;;14.63;9.85;;;;;;;23.01;36.15;98599.28;4346540;33;33265;-59
2023/04/13 02:51:19;;;;;;;12.82;10.18;;;;;;;23.00;36.16;98601.19;4346298;33;33947;-60
2023/04/13 02:53:47;;;;;;;13.18;10.60;;;;;;;23.00;36.16;98600.38;4345225;33;32782;-60
2023/04/13 02:56:15;;;;;;;13.48;10.18;;;;;;;23.00;36.16;98597.66;4346039;33;34559;-60
2023/04/13 02:58:46;;;;;;;12.80;10.32;;;;;;;23.00;36.17;98598.47;4346528;33;33066;-60
2023/04/13 03:01:15;;;;;;;13.23;10.20;;;;;;;23.01;36.17;98596.56;4345456;33;34956;-60
2023/04/13 03:03:42;;;;;;;12.85;9.82;;;;;;;23.00;36.17;98592.22;4356762;32;34701;-60
2023/04/13 03:06:10;;;;;;;11.65;9.73;;;;;;;23.00;36.23;98603.09;4346436;33;34407;-60
2023/04/13 03:08:39;;;;;;;11.77;9.68;;;;;;;23.00;36.26;98608.53;4333120;33;32526;-60
2023/04/13 03:11:08;;;;;;;13.35;10.63;;;;;;;23.00;36.23;98603.09;4345921;33;33977;-60
2023/04/13 03:13:36;;;;;;;13.13;9.90;;;;;;;23.01;36.22;98602.00;4353073;32;33874;-60
2023/04/13 03:16:04;;;;;;;13.23;9.85;;;;;;;23.01;36.21;98602.00;4360054;32;33672;-60
2023/04/13 03:18:32;;;;;;;11.68;9.48;;;;;;;23.00;36.21;98605.81;4347156;32;33333;-60
2023/04/13 03:21:01;;;;;;;12.32;9.43;;;;;;;23.00;36.22;98603.91;4372408;32;33841;-60
2023/04/13 03:23:29;;;;;;;12.55;9.80;;;;;;;23.00;36.21;98601.19;4359985;32;33472;-60
2023/04/13 03:25:57;;;;;;;12.00;9.70;;;;;;;22.99;36.23;98607.72;4360949;32;33872;-60
2023/04/13 03:28:24;;;;;;;11.85;9.52;;;;;;;23.00;36.25;98597.66;4361254;32;33139;-60
2023/04/13 03:30:52;;;;;;;12.68;9.30;;;;;;;22.99;36.25;98595.97;4359789;32;34110;-60
2023/04/13 03:33:20;;;;;;;12.75;9.25;;;;;;;22.98;36.27;98597.06;4359454;32;33931;-60
2023/04/13 03:35:48;;;;;;;12.88;10.23;;;;;;;22.97;36.33;98598.97;4359973;32;33583;-60
2023/04/13 03:38:16;;;;;;;13.57;10.15;;;;;;;22.98;36.36;98599.78;4361368;32;33369;-59
2023/04/13 03:40:45;;;;;;;12.70;9.60;;;;;;;22.98;36.35;98592.44;4359516;32;34564;-60
2023/04/13 03:43:12;;;;;;;12.75;9.55;;;;;;;22.97;36.34;98596.25;4371371;32;34006;-60
2023/04/13 03:45:40;;;;;;;12.75;9.52;;;;;;;22.98;36.36;98597.06;4372176;32;34768;-60
2023/04/13 03:48:08;;;;;;;14.20;9.77;;;;;;;22.99;36.35;98593.25;4359395;32;33488;-60
2023/04/13 03:50:35;;;;;;;11.85;9.57;;;;;;;22.98;36.35;98595.16;4371942;32;33492;-60
2023/04/13 03:53:03;;;;;;;12.70;9.38;;;;;;;22.98;36.40;98594.34;4359681;32;33528;-60
2023/04/13 03:55:31;;;;;;;15.35;10.43;;;;;;;22.98;36.39;98586.19;4346780;32;33768;-61
2023/04/13 03:58:00;;;;;;;19.95;9.18;;;;;;;22.99;36.40;98588.69;4359722;32;33409;-64
2023/04/13 04:00:29;;;;;;;18.40;9.77;;;;;;;22.99;36.38;98587.81;4344754;33;34001;-64
2023/04/13 04:02:57;;;;;;;10.73;8.00;;;;;;;22.99;36.27;98585.94;4356463;32;34694;-63
2023/04/13 04:05:25;;;;;;;16.02;8.95;;;;;;;22.99;35.94;98594.12;4346130;33;33550;-62
2023/04/13 04:07:53;;;;;;;14.75;8.52;;;;;;;22.97;35.76;98590.00;4332736;33;33905;-61
2023/04/13 04:10:21;;;;;;;16.77;9.02;;;;;;;22.96;35.68;98591.06;4344437;33;34537;-62
2023/04/13 04:12:48;;;;;;;14.05;8.25;;;;;;;22.96;35.61;98599.22;4357113;32;34603;-62
2023/04/13 04:15:16;;;;;;;11.70;8.23;;;;;;;22.94;35.58;98596.75;4345787;33;34828;-64
2023/04/13 04:17:44;;;;;;;12.95;8.18;;;;;;;22.94;35.53;98598.63;4356340;32;34282;-63
2023/04/13 04:20:12;;;;;;;12.93;7.80;;;;;;;22.94;35.49;98593.19;4345801;33;33777;-61
2023/04/13 04:22:40;;;;;;;14.20;8.32;;;;;;;22.91;35.47;98592.66;4346121;33;33906;-63
2023/04/13 04:25:08;;;;;;;11.35;7.45;;;;;;;22.90;35.42;98590.19;4344076;33;34436;-62
2023/04/13 04:27:37;;;;;;;12.10;7.63;;;;;;;22.90;35.39;98595.62;4344897;33;33068;-61
2023/04/13 04:30:09;;;;;;;12.50;7.78;;;;;;;22.90;35.37;98601.06;4345478;33;33884;-64
2023/04/13 04:32:39;;;;;;;11.55;8.18;;;;;;;22.89;35.38;98602.12;4331201;33;33287;-62
2023/04/13 04:35:10;;;;;;;11.00;7.97;;;;;;;22.88;35.39;98603.16;4343341;33;32968;-64
2023/04/13 04:37:39;;;;;;;13.30;7.12;;;;;;;22.86;35.38;98606.16;4345209;33;33533;-63
2023/04/13 04:40:11;;;;;;;13.32;7.80;;;;;;;22.87;35.29;98610.50;4345025;33;33594;-63
2023/04/13 04:42:40;;;;;;;11.82;7.85;;;;;;;22.86;35.27;98608.03;4345536;33;34522;-63
2023/04/13 04:45:09;;;;;;;9.77;7.30;;;;;;;22.86;35.24;98617.03;4345772;33;33691;-63
2023/04/13 04:47:40;;;;;;;10.30;7.35;;;;;;;22.84;35.20;98605.56;4343982;33;33125;-63
2023/04/13 04:50:11;;;;;;;11.15;6.90;;;;;;;22.85;35.17;98614.56;4345917;33;34518;-64
2023/04/13 04:52:40;;;;;;;10.95;7.47;;;;;;;22.83;35.15;98612.06;4345798;33;33883;-64
2023/04/13 04:55:08;;;;;;;12.80;7.07;;;;;;;22.83;35.14;98620.25;4345558;33;33657;-63
2023/04/13 04:57:37;;;;;;;14.70;7.35;;;;;;;22.83;35.15;98613.97;4356386;32;33025;-64
2023/04/13 05:03:09;;;;;;;13.30;6.50;;;;;;;22.82;35.09;98609.62;4463849;27;20019;-71
2023/04/13 05:05:37;;;;;;;9.15;6.78;;;;;;;22.80;35.12;98609.88;4359917;33;35131;-87
2023/04/13 05:08:06;;;;;;;10.45;7.43;;;;;;;22.80;35.12;98606.31;4359693;33;33735;-78
2023/04/13 05:13:38;;;;;;;12.43;7.28;;;;;;;22.81;35.04;98605.25;4794607;27;20134;-74
2023/04/13 05:19:11;;;;;;;9.45;6.55;;;;;;;22.79;35.04;98605.50;4396729;27;20180;-82
2023/04/13 05:30:45;;;;;;;;;;;;;;;22.75;35.03;98628.00;4807884;27;20086;-63
2023/04/13 05:33:15;;;;;;;9.27;6.30;;;;;;;22.82;34.89;98632.19;4822331;27;35115;-62
2023/04/13 05:35:44;;;;;;;11.60;6.97;;;;;;;22.74;34.96;98624.47;4345022;32;33561;-60
2023/04/13 05:38:11;;;;;;;11.05;6.05;;;;;;;22.73;35.03;98622.00;4361317;32;33752;-60
2023/04/13 05:40:39;;;;;;;12.07;7.22;;;;;;;22.72;35.05;98621.19;4358504;32;34609;-60
2023/04/13 05:43:07;;;;;;;14.38;6.53;;;;;;;22.72;35.07;98621.19;4358491;32;33625;-61
2023/04/13 05:45:35;;;;;;;8.50;6.20;;;;;;;22.73;35.08;98613.84;4358737;32;34145;-60
2023/04/13 05:48:03;;;;;;;10.10;5.97;;;;;;;22.73;35.11;98616.56;4358604;32;33638;-60
2023/04/13 05:50:31;;;;;;;9.27;6.60;;;;;;;22.73;35.12;98622.00;4351055;32;33264;-61
2023/04/13 05:52:59;;;;;;;10.90;6.07;;;;;;;22.74;35.14;98612.75;4344985;33;33751;-60
2023/04/13 05:55:28;;;;;;;9.20;5.90;;;;;;;22.74;35.16;98618.19;4319893;33;34088;-60
2023/04/13 05:57:56;;;;;;;8.30;5.40;;;;;;;22.74;35.16;98619.03;4343133;33;34027;-61
2023/04/13 06:00:24;;;;;;;7.80;5.60;;;;;;;22.75;35.15;98617.12;4342814;33;33623;-60
2023/04/13 06:02:53;;;;;;;8.00;5.82;;;;;;;22.74;35.17;98613.59;4342349;33;33861;-60
2023/04/13 06:05:21;;;;;;;9.82;5.68;;;;;;;22.76;35.15;98616.06;4344595;33;33496;-60
2023/04/13 06:07:52;;;;;;;9.33;6.20;;;;;;;22.75;35.16;98611.69;4346338;33;33867;-60
2023/04/13 06:10:20;;;;;;;8.90;5.85;;;;;;;22.74;35.18;98621.75;4333005;33;31894;-60
2023/04/13 06:12:48;;;;;;;8.07;5.43;;;;;;;22.76;35.16;98616.88;4343030;33;33021;-60
2023/04/13 06:15:16;;;;;;;10.90;6.35;;;;;;;22.74;35.19;98613.59;4341499;33;33280;-60
2023/04/13 06:17:43;;;;;;;9.50;5.82;;;;;;;22.75;35.20;98611.69;4330737;33;33558;-60
2023/04/13 06:20:11;;;;;;;8.50;6.22;;;;;;;22.74;35.21;98618.19;4318566;33;33247;-61
2023/04/13 06:22:39;;;;;;;9.10;5.82;;;;;;;22.75;35.20;98614.41;4330866;33;34237;-60
2023/04/13 06:25:07;;;;;;;8.57;6.10;;;;;;;22.75;35.19;98617.12;4332265;33;33553;-60
2023/04/13 06:27:35;;;;;;;8.77;5.68;;;;;;;22.75;35.19;98619.84;4333783;33;33852;-61
2023/04/13 06:30:04;;;;;;;7.47;5.57;;;;;;;22.75;35.20;98623.38;4343171;32;33438;-60
2023/04/13 06:32:32;;;;;;;8.00;5.70;;;;;;;22.75;35.22;98625.28;4351650;32;34556;-60
2023/04/13 06:35:04;;;;;;;9.15;5.72;;;;;;;22.75;35.24;98617.94;4345082;33;34096;-60
2023/04/13 06:37:34;;;;;;;11.00;5.80;;;;;;;22.74;35.25;98621.75;4333002;33;33853;-60
2023/04/13 06:40:09;;;;;;;9.30;5.70;;;;;;;22.74;35.25;98623.63;4309969;33;32771;-60
2023/04/13 06:42:40;;;;;;;9.18;6.10;;;;;;;22.74;35.23;98626.34;4346526;33;34040;-60
2023/04/13 06:45:16;;;;;;;9.35;5.82;;;;;;;22.74;35.27;98627.19;4332359;33;33932;-60
2023/04/13 06:47:44;;;;;;;10.00;6.00;;;;;;;22.74;35.26;98623.63;4333370;33;33590;-60
2023/04/13 06:50:12;;;;;;;9.35;6.15;;;;;;;22.74;35.26;98627.19;4346212;33;33331;-60
2023/04/13 06:52:41;;;;;;;8.10;5.18;;;;;;;22.75;35.26;98630.72;4346829;33;34232;-61
2023/04/13 06:55:09;;;;;;;9.68;5.75;;;;;;;22.75;35.26;98633.44;4333666;33;33817;-60
2023/04/13 06:57:37;;;;;;;8.25;6.03;;;;;;;22.76;35.27;98643.25;4345051;33;34595;-60
2023/04/13 07:00:06;;;;;;;9.32;6.57;;;;;;;22.75;35.27;98638.88;4333377;33;33932;-61
2023/04/13 07:02:52;;;;;;;8.60;6.03;;;;;;;22.74;35.29;98629.06;4320032;33;33886;-60
2023/04/13 07:05:21;;;;;;;7.65;5.75;;;;;;;22.75;35.27;98634.25;4330885;33;33912;-61
2023/04/13 07:07:48;;;;;;;7.62;5.10;;;;;;;22.74;35.28;98638.06;4331968;33;33430;-61
2023/04/13 07:10:16;;;;;;;8.68;6.03;;;;;;;22.74;35.30;98645.41;4331529;33;33467;-60
2023/04/13 07:12:45;;;;;;;9.55;5.90;;;;;;;22.73;35.31;98644.56;4330664;33;33871;-60
2023/04/13 07:15:13;;;;;;;7.93;5.50;;;;;;;22.74;35.29;98648.12;4330614;33;33992;-60
2023/04/13 07:17:41;;;;;;;7.53;5.50;;;;;;;22.74;35.31;98646.22;4305053;33;33506;-60
2023/04/13 07:20:11;;;;;;;8.73;5.35;;;;;;;22.74;35.31;98650.84;4332120;33;33339;-60
2023/04/13 07:22:39;;;;;;;8.95;5.55;;;;;;;22.74;35.30;98650.84;4331858;33;35193;-60
2023/04/13 07:25:08;;;;;;;8.65;5.97;;;;;;;22.74;35.32;98653.56;4306254;33;33494;-60
2023/04/13 07:27:35;;;;;;;8.25;5.68;;;;;;;22.73;35.32;98650.00;4330619;33;33882;-60
2023/04/13 07:30:03;;;;;;;7.87;5.90;;;;;;;22.73;35.33;98651.91;4341060;33;33878;-60
2023/04/13 07:32:33;;;;;;;7.90;5.57;;;;;;;22.73;35.32;98657.34;4344785;33;34098;-61
2023/04/13 07:35:01;;;;;;;8.15;5.43;;;;;;;22.73;35.32;98652.72;4343588;33;33992;-61
2023/04/13 07:37:29;;;;;;;7.10;5.28;;;;;;;22.72;35.33;98645.66;4340251;33;34772;-61
2023/04/13 07:40:00;;;;;;;7.62;5.40;;;;;;;22.73;35.33;98654.63;4338898;33;33086;-60
2023/04/13 07:42:27;;;;;;;7.90;5.53;;;;;;;22.73;35.33;98654.63;4341958;33;33275;-61
2023/04/13 07:44:55;;;;;;;8.85;5.22;;;;;;;22.73;35.33;98655.44;4345667;33;34009;-61
2023/04/13 07:47:24;;;;;;;7.25;5.00;;;;;;;22.74;35.33;98656.28;4331791;33;32614;-60
2023/04/13 07:49:53;;;;;;;8.82;5.18;;;;;;;22.74;35.33;98650.84;4343662;33;33006;-60
2023/04/13 07:52:21;;;;;;;7.12;5.62;;;;;;;22.73;35.33;98650.00;4330329;33;34031;-60
2023/04/13 07:54:50;;;;;;;8.77;5.20;;;;;;;22.74;35.33;98650.84;4349507;32;34036;-60
2023/04/13 07:57:20;;;;;;;6.80;4.80;;;;;;;22.73;35.32;98655.44;4351872;32;33832;-61
2023/04/13 07:59:48;;;;;;;;;;;;;;;22.73;35.33;98660.06;4331097;33;31902;-61
2023/04/13 08:02:16;;;;;;;8.15;5.82;;;;;;;22.82;35.19;98655.84;4345137;33;33632;-61
2023/04/13 08:04:45;;;;;;;8.35;5.20;;;;;;;22.75;35.30;98652.47;4345276;33;34144;-61
2023/04/13 08:07:16;;;;;;;7.93;4.90;;;;;;;22.73;35.33;98660.06;4346399;33;34310;-61
2023/04/13 08:09:47;;;;;;;8.02;5.30;;;;;;;22.73;35.35;98660.06;4343289;33;32454;-61
2023/04/13 08:12:18;;;;;;;9.77;5.45;;;;;;;22.72;35.38;98655.72;4344291;33;33940;-61
2023/04/13 08:14:45;;;;;;;6.57;4.68;;;;;;;22.72;35.36;98653.00;4358973;32;33751;-61
2023/04/13 08:17:13;;;;;;;7.75;5.12;;;;;;;22.72;35.36;98650.28;4356400;32;33063;-61
2023/04/13 08:19:41;;;;;;;8.02;5.00;;;;;;;22.72;35.38;98644.84;4332930;32;33343;-61
2023/04/13 08:22:11;;;;;;;7.93;5.37;;;;;;;22.72;35.36;98647.56;4330090;33;32829;-61
2023/04/13 08:24:38;;;;;;;9.32;5.50;;;;;;;22.72;35.34;98647.56;4331011;33;33760;-61
2023/04/13 08:27:06;;;;;;;8.98;5.65;;;;;;;22.72;35.35;98656.53;4331123;33;34026;-61
2023/04/13 08:29:34;;;;;;;8.82;6.03;;;;;;;22.73;35.36;98651.91;4334942;33;33530;-60
2023/04/13 08:32:02;;;;;;;7.37;5.05;;;;;;;22.71;35.36;98651.31;4342596;33;33744;-60
2023/04/13 08:34:30;;;;;;;7.45;5.10;;;;;;;22.72;35.35;98653.81;4342530;33;32859;-62
2023/04/13 08:36:57;;;;;;;8.35;5.28;;;;;;;22.71;35.35;98652.16;4332377;33;34494;-60
2023/04/13 08:39:26;;;;;;;8.18;5.32;;;;;;;22.72;35.36;98647.56;4345057;33;33511;-61
2023/04/13 08:41:54;;;;;;;6.72;4.75;;;;;;;22.73;35.36;98646.47;4344131;33;34345;-61
2023/04/13 08:44:21;;;;;;;8.35;5.68;;;;;;;22.71;35.36;98646.72;4342891;33;34151;-61
2023/04/13 08:46:50;;;;;;;7.30;5.00;;;;;;;22.72;35.36;98647.56;4307668;33;33356;-62
2023/04/13 08:49:21;;;;;;;8.80;4.72;;;;;;;22.72;35.38;98642.94;4330221;33;34182;-61
2023/04/13 08:51:50;;;;;;;7.00;5.07;;;;;;;22.72;35.35;98633.97;4344640;33;34392;-62
2023/04/13 08:54:19;;;;;;;8.25;4.97;;;;;;;22.71;35.38;98641.28;4331177;33;33732;-61
2023/04/13 08:56:48;;;;;;;6.78;4.55;;;;;;;22.73;35.35;98639.13;4345564;33;34082;-61
2023/04/13 08:59:16;;;;;;;;;;;;;;;22.72;35.35;98640.22;4343357;33;33347;-61
2023/04/13 09:01:47;;;;;;;6.43;4.47;;;;;;;22.81;35.21;98640.62;4331894;33;34256;-61
2023/04/13 09:04:17;;;;;;;7.15;4.55;;;;;;;22.74;35.31;98637.22;4307104;33;33255;-63
2023/04/13 09:06:46;;;;;;;7.30;4.95;;;;;;;22.72;35.36;98637.50;4329756;33;34993;-61
2023/04/13 09:09:14;;;;;;;6.40;4.32;;;;;;;22.71;35.38;98635.84;4316394;33;33488;-60
2023/04/13 09:11:43;;;;;;;7.37;4.90;;;;;;;22.71;35.38;98637.72;4318048;33;32759;-61
2023/04/13 09:14:11;;;;;;;9.73;5.12;;;;;;;22.69;35.37;98637.97;4343208;33;33914;-61
2023/04/13 09:16:39;;;;;;;7.18;4.95;;;;;;;22.71;35.38;98627.69;4343512;33;34114;-61
2023/04/13 09:19:09;;;;;;;7.50;4.97;;;;;;;22.72;35.36;98631.22;4343867;33;33466;-61
2023/04/13 09:21:37;;;;;;;6.00;4.50;;;;;;;22.72;35.36;98639.41;4330263;33;34288;-60
2023/04/13 09:24:05;;;;;;;7.62;4.75;;;;;;;22.72;35.36;98642.13;4344236;32;34023;-61
2023/04/13 09:26:42;;;;;;;6.75;4.60;;;;;;;22.72;35.36;98639.41;4338890;33;33698;-61
2023/04/13 09:29:15;;;;;;;6.72;4.50;;;;;;;22.72;35.38;98642.94;4325096;33;33313;-60
2023/04/13 09:31:44;;;;;;;6.87;4.68;;;;;;;22.71;35.36;98635.00;4333574;33;33763;-61
2023/04/13 09:34:12;;;;;;;6.70;4.50;;;;;;;22.72;35.36;98637.50;4334670;33;33910;-61
2023/04/13 09:36:41;;;;;;;6.17;4.30;;;;;;;22.72;35.35;98637.50;4305385;33;34396;-61
2023/04/13 09:39:28;;;;;;;6.82;4.47;;;;;;;22.72;35.36;98631.22;4329483;33;32932;-61
2023/04/13 09:41:57;;;;;;;6.72;4.72;;;;;;;22.72;35.36;98634.78;4332202;33;34673;-61
2023/04/13 09:44:31;;;;;;;7.53;5.30;;;;;;;22.72;35.36;98626.63;4305862;33;33680;-64
2023/04/13 09:47:00;;;;;;;7.15;4.80;;;;;;;22.72;35.36;98621.19;4301409;33;32968;-61
2023/04/13 09:49:39;;;;;;;7.20;4.05;;;;;;;22.73;35.40;98643.75;4331229;33;33179;-62
2023/04/13 09:52:17;;;;;;;7.57;4.82;;;;;;;22.74;35.38;98634.50;4318905;33;33903;-61
2023/04/13 09:54:52;;;;;;;8.75;5.50;;;;;;;22.73;35.27;98630.16;4319716;33;33863;-62
2023/04/13 09:57:29;;;;;;;7.78;4.75;;;;;;;22.72;34.93;98628.53;4318978;33;33844;-62
2023/04/13 09:59:59;;;;;;;7.30;4.57;;;;;;;22.71;34.74;98624.97;4306786;33;32218;-62
2023/04/13 10:02:38;;;;;;;7.65;4.18;;;;;;;22.70;34.52;98628.75;4319824;33;34811;-62
2023/04/13 10:05:08;;;;;;;9.82;4.40;;;;;;;22.70;34.37;98625.22;4319077;33;34855;-62
2023/04/13 10:07:36;;;;;;;7.53;4.37;;;;;;;22.68;34.25;98620.03;4306367;33;34140;-62
2023/04/13 10:10:05;;;;;;;8.75;4.60;;;;;;;22.70;34.04;98627.94;4318471;33;33263;-62
2023/04/13 10:12:33;;;;;;;6.65;3.90;;;;;;;22.70;33.97;98636.09;4332110;33;33884;-62
2023/04/13 10:15:26;;;;;;;7.10;4.22;;;;;;;22.69;33.82;98637.16;4318895;33;34066;-62
2023/04/13 10:18:26;;;;;;;6.75;3.60;;;;;;;22.70;33.68;98636.91;4318257;33;32965;-61
2023/04/13 10:20:53;;;;;;;;;;;;;;;22.67;33.59;98634.69;4306944;33;32333;-61
2023/04/13 10:23:21;;;;;;;8.73;4.10;;;;;;;22.73;33.39;98636.41;4330375;33;34928;-62
2023/04/13 10:25:52;;;;;;;6.28;3.47;;;;;;;22.65;33.20;98632.22;4306818;33;33951;-61
2023/04/13 10:28:20;;;;;;;6.62;3.67;;;;;;;22.63;33.26;98637.09;4315826;33;33681;-62
2023/04/13 10:30:51;;;;;;;5.75;3.45;;;;;;;22.62;33.20;98632.72;4303744;33;33302;-61
2023/04/13 10:33:19;;;;;;;7.32;3.50;;;;;;;22.62;33.13;98635.44;4304112;33;33675;-61
2023/04/13 10:35:54;;;;;;;7.25;3.60;;;;;;;22.61;33.05;98636.50;4298764;33;34440;-62
2023/04/13 10:38:22;;;;;;;8.30;4.22;;;;;;;22.61;32.98;98636.50;4303596;33;32830;-62
2023/04/13 10:40:50;;;;;;;7.05;3.87;;;;;;;22.61;32.97;98633.78;4318320;33;32971;-62
2023/04/13 10:43:28;;;;;;;6.93;3.58;;;;;;;22.61;32.97;98632.97;4318501;33;33449;-62
2023/04/13 10:46:05;;;;;;;6.85;3.53;;;;;;;22.60;32.98;98632.13;4318286;33;33934;-62
2023/04/13 10:48:33;;;;;;;5.90;3.65;;;;;;;22.60;33.00;98632.13;4318624;33;34700;-61
2023/04/13 10:51:01;;;;;;;5.30;3.17;;;;;;;22.58;33.03;98623.44;4318196;33;33255;-61
2023/04/13 10:53:33;;;;;;;6.90;3.47;;;;;;;22.58;33.01;98620.69;4331060;33;34368;-61
2023/04/13 10:56:04;;;;;;;6.12;3.35;;;;;;;22.59;32.95;98616.09;4318326;33;33164;-62
2023/04/13 10:58:32;;;;;;;5.72;3.10;;;;;;;22.59;33.01;98619.63;4294241;33;33492;-62
2023/04/13 11:00:59;;;;;;;6.10;3.33;;;;;;;22.58;33.03;98620.69;4331412;33;33596;-61
2023/04/13 11:03:27;;;;;;;6.97;3.58;;;;;;;22.59;33.00;98613.37;4332048;33;33871;-61
2023/04/13 11:05:57;;;;;;;9.02;3.20;;;;;;;22.59;32.96;98594.34;4318022;33;33914;-61
2023/04/13 11:08:26;;;;;;;7.40;2.93;;;;;;;22.58;33.01;98604.41;4318180;33;33943;-62
2023/04/13 11:10:55;;;;;;;7.78;3.22;;;;;;;22.59;32.96;98614.19;4306339;33;32691;-61
2023/04/13 11:13:25;;;;;;;6.95;2.95;;;;;;;22.59;32.98;98611.47;4318392;33;34211;-63
2023/04/13 11:16:01;;;;;;;5.78;3.22;;;;;;;22.58;32.98;98607.13;4306157;33;33859;-62
2023/04/13 11:18:29;;;;;;;5.78;3.37;;;;;;;22.59;33.00;98605.22;4318212;33;33891;-61
2023/04/13 11:20:56;;;;;;;9.30;3.35;;;;;;;22.59;33.00;98605.22;4331579;33;33690;-61
2023/04/13 11:23:24;;;;;;;5.60;3.00;;;;;;;22.58;32.98;98604.41;4317425;33;33664;-61
2023/04/13 11:25:53;;;;;;;6.35;3.08;;;;;;;22.58;32.96;98593.53;4306238;33;33538;-62
2023/04/13 11:28:21;;;;;;;5.40;2.78;;;;;;;22.58;32.95;98592.69;4306530;33;34386;-61
2023/04/13 11:30:55;;;;;;;6.90;3.08;;;;;;;22.60;32.96;98598.69;4317846;33;33383;-60
2023/04/13 11:33:28;;;;;;;5.68;2.90;;;;;;;22.59;33.00;98600.59;4306121;33;33825;-61
2023/04/13 11:35:57;;;;;;;7.70;3.72;;;;;;;22.59;33.06;98588.91;4333279;33;33555;-61
2023/04/13 11:38:25;;;;;;;5.35;2.97;;;;;;;22.58;32.99;98585.38;4332505;33;32135;-61
2023/04/13 11:40:59;;;;;;;8.15;3.80;;;;;;;22.58;33.00;98590.81;4333314;33;33091;-60
2023/04/13 11:43:44;;;;;;;5.32;3.08;;;;;;;22.59;33.03;98583.47;4334589;33;34439;-61
2023/04/13 11:46:14;;;;;;;6.12;3.10;;;;;;;22.59;33.03;98588.91;4332865;33;34354;-61
2023/04/13 11:48:42;;;;;;;5.57;3.05;;;;;;;22.58;33.04;98585.38;4345024;33;34162;-61
2023/04/13 11:51:10;;;;;;;5.78;2.90;;;;;;;22.59;33.04;98584.28;4332555;33;32542;-61
2023/04/13 11:53:39;;;;;;;5.07;2.50;;;;;;;22.58;33.03;98584.53;4319072;33;33870;-61
2023/04/13 11:56:06;;;;;;;5.75;3.03;;;;;;;22.58;33.01;98579.94;4331457;33;34763;-62
2023/04/13 11:58:34;;;;;;;7.80;3.25;;;;;;;22.59;33.01;98575.31;4330107;33;33643;-61